Oriskany, Virginia
Current Conditions -  °F | °C
As of 7:54 AM on Monday 22 Dec 2014 (Local Time) from KROA Reporting Station
Overcast Overcast  
Wind Chill: 32°   Ceiling: 2500
Heat Index: 36°   Visibility: 9mi
Dew Point: 29°   Wind: 5mph
Humidity: 76%   Direction: 160°SSE
Pressure: 30.21"   Gusts: NA
Location:  37.62°N, 79.98°W
Report Text: KROA 221254Z 16004KT 9SM OVC025 02/M02 A3021 RMK AO2 SLP236 T00221017
Loading
Personal Weather Stations






























Interactive Weather Map New forecast layout! Learn more

10-Day Weather Forecast

Advertisements
Track Severe Weather on mobile